createdAt,value
2022-12-18T00:00:09.172Z,27.17
2022-12-18T00:00:44.603Z,28.58
2022-12-18T00:01:24.940Z,26.42
2022-12-18T00:01:59.482Z,25.83
2022-12-18T00:02:31.075Z,27.17
2022-12-18T00:03:02.680Z,26.95
2022-12-18T00:03:35.061Z,28.38
2022-12-18T00:04:09.454Z,27.30
2022-12-18T00:04:41.135Z,26.30
2022-12-18T00:05:12.700Z,27.60
2022-12-18T00:05:51.732Z,28.55
2022-12-18T00:06:25.636Z,27.88
2022-12-18T00:06:57.451Z,26.13
2022-12-18T00:07:29.066Z,27.77
2022-12-18T00:08:00.686Z,28.10
2022-12-18T00:08:33.642Z,29.02
2022-12-18T00:09:05.518Z,28.73
2022-12-18T00:09:40.145Z,26.63
2022-12-18T00:10:15.356Z,28.73
2022-12-18T00:10:47.272Z,26.83
2022-12-18T00:11:21.194Z,28.35
2022-12-18T00:11:52.708Z,31.02
2022-12-18T00:12:24.288Z,26.50
2022-12-18T00:12:55.857Z,29.05
2022-12-18T00:13:28.316Z,28.67
2022-12-18T00:14:00.814Z,28.88
2022-12-18T00:14:32.329Z,28.65
2022-12-18T00:15:04.520Z,29.53
2022-12-18T00:15:37.828Z,28.05
2022-12-18T00:16:21.326Z,29.25
2022-12-18T00:16:52.971Z,27.98
2022-12-18T00:17:24.510Z,29.52
2022-12-18T00:17:56.051Z,28.40
2022-12-18T00:18:27.678Z,29.10
2022-12-18T00:19:00.335Z,28.10
2022-12-18T00:19:31.895Z,28.38
2022-12-18T00:20:03.730Z,29.33
2022-12-18T00:20:39.701Z,28.07
2022-12-18T00:21:13.472Z,26.67
2022-12-18T00:21:45.076Z,28.30
2022-12-18T00:22:16.644Z,28.83
2022-12-18T00:22:48.247Z,28.48
2022-12-18T00:23:19.700Z,31.27
2022-12-18T00:23:52.280Z,28.65
2022-12-18T00:24:23.814Z,29.80
2022-12-18T00:24:55.333Z,29.45
2022-12-18T00:25:26.912Z,29.73
2022-12-18T00:26:07.697Z,28.90
2022-12-18T00:26:39.912Z,29.63
2022-12-18T00:27:11.562Z,29.83
2022-12-18T00:27:43.073Z,28.30
2022-12-18T00:28:14.668Z,29.88
2022-12-18T00:28:46.931Z,29.05
2022-12-18T00:29:18.419Z,28.55
2022-12-18T00:29:50.151Z,30.65
2022-12-18T00:30:21.921Z,30.58
2022-12-18T00:31:10.856Z,29.00
2022-12-18T00:31:44.056Z,27.67
2022-12-18T00:32:15.676Z,28.25
2022-12-18T00:32:47.265Z,29.95
2022-12-18T00:33:19.269Z,30.05
2022-12-18T00:33:53.966Z,29.58
2022-12-18T00:34:26.804Z,28.20
2022-12-18T00:34:58.294Z,27.83
2022-12-18T00:35:29.859Z,29.40
2022-12-18T00:36:11.116Z,29.92
2022-12-18T00:36:42.907Z,27.05
2022-12-18T00:37:20.239Z,30.10
2022-12-18T00:37:52.029Z,28.70
2022-12-18T00:38:23.615Z,30.02
2022-12-18T00:38:56.685Z,32.50
2022-12-18T00:39:28.122Z,28.60
2022-12-18T00:39:59.724Z,28.50
2022-12-18T00:40:31.302Z,29.13
2022-12-18T00:41:05.857Z,29.70
2022-12-18T00:41:55.991Z,30.00
2022-12-18T00:42:46.060Z,26.25
2022-12-18T00:43:17.617Z,26.33
2022-12-18T00:43:49.160Z,27.17
2022-12-18T00:44:21.087Z,28.00
2022-12-18T00:44:52.642Z,29.50
2022-12-18T00:45:29.523Z,27.83
2022-12-18T00:46:01.146Z,28.85
2022-12-18T00:46:33.148Z,26.92
2022-12-18T00:47:53.682Z,27.88
2022-12-18T00:48:25.133Z,27.80
2022-12-18T00:48:56.648Z,27.60
2022-12-18T00:49:28.238Z,28.88
2022-12-18T00:49:59.726Z,28.88
2022-12-18T00:50:31.209Z,28.80
2022-12-18T00:51:03.300Z,30.75
2022-12-18T00:51:34.892Z,29.40
2022-12-18T00:52:06.411Z,29.33
2022-12-18T00:52:38.122Z,27.63
2022-12-18T00:53:09.687Z,29.77
2022-12-18T00:53:42.162Z,28.58
2022-12-18T00:54:14.187Z,30.93
2022-12-18T00:54:45.630Z,28.88
2022-12-18T00:55:17.384Z,28.48
2022-12-18T00:55:48.908Z,32.22
2022-12-18T00:56:24.342Z,27.73
2022-12-18T00:56:56.223Z,29.33
2022-12-18T00:57:27.753Z,28.48
2022-12-18T00:57:59.264Z,29.63
2022-12-18T00:58:30.772Z,29.27
2022-12-18T00:59:02.288Z,27.20
2022-12-18T00:59:33.854Z,29.70
2022-12-18T01:00:06.884Z,29.00
2022-12-18T01:00:39.057Z,29.77
2022-12-18T01:01:10.633Z,29.75
2022-12-18T01:01:42.382Z,28.15
2022-12-18T01:02:14.294Z,29.33
2022-12-18T01:02:46.048Z,31.48
2022-12-18T01:03:17.716Z,29.40
2022-12-18T01:03:49.690Z,29.73
2022-12-18T01:04:21.289Z,30.15
2022-12-18T01:04:52.803Z,29.77
2022-12-18T01:05:24.411Z,30.50
2022-12-18T01:05:55.846Z,29.50
2022-12-18T01:06:27.564Z,30.48
2022-12-18T01:06:59.029Z,29.63
2022-12-18T01:07:30.464Z,28.05
2022-12-18T01:08:01.915Z,30.52
2022-12-18T01:08:33.381Z,29.75
2022-12-18T01:09:05.135Z,30.55
2022-12-18T01:09:36.644Z,31.08
2022-12-18T01:10:10.417Z,32.00
2022-12-18T01:10:42.603Z,30.88
2022-12-18T01:11:18.022Z,31.05
2022-12-18T01:11:49.533Z,30.98
2022-12-18T01:12:21.088Z,29.58
2022-12-18T01:12:52.753Z,29.27
2022-12-18T01:13:24.274Z,30.27
2022-12-18T01:13:56.046Z,28.60
2022-12-18T01:14:27.613Z,30.25
2022-12-18T01:14:59.129Z,29.35
2022-12-18T01:15:30.718Z,30.43
2022-12-18T01:16:02.617Z,29.40
2022-12-18T01:16:34.092Z,29.80
2022-12-18T01:17:05.695Z,28.80
2022-12-18T01:17:37.291Z,30.60
2022-12-18T01:18:08.831Z,29.48
2022-12-18T01:18:40.641Z,29.83
2022-12-18T01:19:12.595Z,29.15
2022-12-18T01:19:44.090Z,30.65
2022-12-18T01:20:15.954Z,29.30
2022-12-18T01:20:47.528Z,28.93
2022-12-18T01:21:19.105Z,29.92
2022-12-18T01:21:50.726Z,30.13
2022-12-18T01:22:22.218Z,31.55
2022-12-18T01:22:53.812Z,28.08
2022-12-18T01:23:25.310Z,29.35
2022-12-18T01:23:58.116Z,29.67
2022-12-18T01:24:29.779Z,29.73
2022-12-18T01:25:02.049Z,31.23
2022-12-18T01:25:33.600Z,28.23
2022-12-18T01:26:08.532Z,29.73
2022-12-18T01:26:40.134Z,29.15
2022-12-18T01:27:11.829Z,29.80
2022-12-18T01:27:43.357Z,30.83
2022-12-18T01:28:14.812Z,30.35
2022-12-18T01:28:46.280Z,29.70
2022-12-18T01:29:17.997Z,29.52
2022-12-18T01:29:50.294Z,29.25
2022-12-18T01:30:21.892Z,30.25
2022-12-18T01:30:53.359Z,29.55
2022-12-18T01:31:27.507Z,29.67
2022-12-18T01:31:59.215Z,30.08
2022-12-18T01:32:31.980Z,31.17
2022-12-18T01:33:05.734Z,31.65
2022-12-18T01:33:37.876Z,28.75
2022-12-18T01:34:10.040Z,29.35
2022-12-18T01:34:41.782Z,29.70
2022-12-18T01:35:13.216Z,30.20
2022-12-18T01:35:44.788Z,29.90
2022-12-18T01:36:36.633Z,29.98
2022-12-18T01:37:08.259Z,27.83
2022-12-18T01:37:39.791Z,29.20
2022-12-18T01:38:11.351Z,30.92
2022-12-18T01:38:43.382Z,29.77
2022-12-18T01:39:16.163Z,29.23
2022-12-18T01:39:47.649Z,29.48
2022-12-18T01:40:19.114Z,29.90
2022-12-18T01:40:50.603Z,29.98
2022-12-18T01:41:27.259Z,30.90
2022-12-18T01:42:05.640Z,28.83
2022-12-18T01:42:37.404Z,29.13
2022-12-18T01:43:59.395Z,27.65
2022-12-18T01:45:01.624Z,28.73
2022-12-18T01:45:33.126Z,27.25
2022-12-18T01:46:04.774Z,26.63
2022-12-18T01:46:36.298Z,28.17
2022-12-18T01:47:08.029Z,29.27
2022-12-18T01:47:46.453Z,31.45
2022-12-18T01:48:18.020Z,29.45
2022-12-18T01:48:52.413Z,28.90
2022-12-18T01:49:23.871Z,27.20
2022-12-18T01:49:56.785Z,30.05
2022-12-18T01:50:36.904Z,28.80
2022-12-18T01:51:11.218Z,27.67
2022-12-18T01:51:45.098Z,28.42
2022-12-18T01:52:18.772Z,28.48
2022-12-18T01:52:56.388Z,27.95
2022-12-18T01:53:27.962Z,29.38
2022-12-18T01:54:19.101Z,30.23
2022-12-18T01:54:53.181Z,28.73
2022-12-18T01:55:27.429Z,28.40
2022-12-18T01:56:00.148Z,27.85
2022-12-18T01:56:31.837Z,30.67
2022-12-18T01:57:03.452Z,28.48
2022-12-18T01:57:35.941Z,27.83
2022-12-18T01:58:07.728Z,30.08
2022-12-18T01:58:48.215Z,28.58
2022-12-18T01:59:19.971Z,28.42
2022-12-18T01:59:54.787Z,27.40
2022-12-18T02:00:27.553Z,29.07
2022-12-18T02:00:59.110Z,29.38
2022-12-18T02:01:32.424Z,29.70
2022-12-18T02:02:04.401Z,29.42
2022-12-18T02:02:36.451Z,28.77
2022-12-18T02:03:08.052Z,28.27
2022-12-18T02:03:43.796Z,28.05
2022-12-18T02:04:28.016Z,29.48
2022-12-18T02:04:59.639Z,28.02
2022-12-18T02:05:56.536Z,29.05
2022-12-18T02:06:36.529Z,26.60
2022-12-18T02:07:45.434Z,29.20
2022-12-18T02:08:44.540Z,25.63
2022-12-18T02:09:23.837Z,26.95
2022-12-18T02:10:04.904Z,28.15
2022-12-18T02:10:57.172Z,27.30
2022-12-18T02:12:04.834Z,25.65
2022-12-18T02:12:46.260Z,26.95
2022-12-18T02:13:41.858Z,26.00
2022-12-18T02:14:39.927Z,25.00
2022-12-18T02:15:25.246Z,26.07
2022-12-18T02:16:16.968Z,24.55
2022-12-18T02:17:22.069Z,25.17
2022-12-18T02:17:59.502Z,26.80
2022-12-18T02:18:39.322Z,25.48
2022-12-18T02:19:30.154Z,26.20
2022-12-18T02:20:33.070Z,27.15
2022-12-18T02:21:19.580Z,26.33
2022-12-18T02:22:03.498Z,26.60
2022-12-18T02:22:54.841Z,26.00
2022-12-18T02:23:42.432Z,25.90
2022-12-18T02:24:30.757Z,25.83
2022-12-18T02:25:13.909Z,27.23
2022-12-18T02:26:03.161Z,27.75
2022-12-18T02:26:41.262Z,26.35
2022-12-18T02:27:14.154Z,26.23
2022-12-18T02:27:49.686Z,26.55
2022-12-18T02:28:24.852Z,27.90
2022-12-18T02:28:59.434Z,28.92
2022-12-18T02:29:50.535Z,26.27
2022-12-18T02:30:24.736Z,28.50
2022-12-18T02:31:00.581Z,26.23
2022-12-18T02:31:39.954Z,27.83
2022-12-18T02:32:17.837Z,28.42
2022-12-18T02:32:53.174Z,28.13
2022-12-18T02:33:26.678Z,28.52
2022-12-18T02:34:03.203Z,28.13
2022-12-18T02:34:38.882Z,27.35
2022-12-18T02:35:15.078Z,26.83
2022-12-18T02:35:47.816Z,27.50
2022-12-18T02:36:21.114Z,27.67
2022-12-18T02:36:55.233Z,28.63
2022-12-18T02:37:28.954Z,28.50
2022-12-18T02:38:01.322Z,29.85
2022-12-18T02:38:34.904Z,29.60
2022-12-18T02:39:09.946Z,29.77
2022-12-18T02:39:44.045Z,28.10
2022-12-18T02:40:18.122Z,27.77
2022-12-18T02:40:51.928Z,30.30
2022-12-18T02:41:24.001Z,27.20
2022-12-18T02:41:55.736Z,28.27
2022-12-18T02:42:29.044Z,28.90
2022-12-18T02:43:15.281Z,29.45
2022-12-18T02:43:54.797Z,30.10
2022-12-18T02:44:26.481Z,27.30
2022-12-18T02:44:58.030Z,27.52
2022-12-18T02:45:29.588Z,29.67
2022-12-18T02:46:22.030Z,29.63
2022-12-18T02:46:55.030Z,27.80
2022-12-18T02:47:31.914Z,27.48
2022-12-18T02:48:03.725Z,29.50
2022-12-18T02:48:37.197Z,28.25
2022-12-18T02:49:11.330Z,26.73
2022-12-18T02:50:05.152Z,29.15
2022-12-18T02:50:45.890Z,26.80
2022-12-18T02:51:36.180Z,26.27
2022-12-18T02:52:32.541Z,25.23
2022-12-18T02:53:23.057Z,26.23
2022-12-18T02:54:01.915Z,26.42
2022-12-18T02:54:52.797Z,26.73
2022-12-18T02:55:49.973Z,24.87
2022-12-18T02:56:30.095Z,23.55
2022-12-18T02:57:13.502Z,24.40
2022-12-18T02:57:55.002Z,24.30
2022-12-18T02:58:41.614Z,25.58
2022-12-18T02:59:32.736Z,24.98
2022-12-18T03:00:13.287Z,25.17
2022-12-18T03:00:57.678Z,25.38
2022-12-18T03:01:41.449Z,25.23
2022-12-18T03:02:27.346Z,24.75
2022-12-18T03:03:07.966Z,23.67
2022-12-18T03:03:51.722Z,26.05
2022-12-18T03:04:44.700Z,26.52
2022-12-18T03:06:20.862Z,23.90
2022-12-18T03:06:56.985Z,25.05
2022-12-18T03:07:41.097Z,25.83
2022-12-18T03:08:28.837Z,23.67
2022-12-18T03:09:23.018Z,24.80
2022-12-18T03:09:56.388Z,24.77
2022-12-18T03:10:35.201Z,24.00
2022-12-18T03:11:11.788Z,24.50
2022-12-18T03:12:08.069Z,26.25
2022-12-18T03:12:47.708Z,25.48
2022-12-18T03:13:27.866Z,25.23
2022-12-18T03:14:00.992Z,23.85
2022-12-18T03:14:37.827Z,25.77
2022-12-18T03:15:18.344Z,24.50
2022-12-18T03:15:54.436Z,27.83
2022-12-18T03:16:29.795Z,26.48
2022-12-18T03:17:10.397Z,27.10
2022-12-18T03:17:47.436Z,24.58
2022-12-18T03:18:39.985Z,27.23
2022-12-18T03:19:17.867Z,25.13
2022-12-18T03:19:50.922Z,25.88
2022-12-18T03:20:24.718Z,24.90
2022-12-18T03:21:01.367Z,26.70
2022-12-18T03:21:43.154Z,26.52
2022-12-18T03:22:17.197Z,26.00
2022-12-18T03:22:52.921Z,26.02
2022-12-18T03:23:30.091Z,25.03
2022-12-18T03:24:04.381Z,25.80
2022-12-18T03:24:40.000Z,27.60
2022-12-18T03:25:15.127Z,26.08
2022-12-18T03:25:48.643Z,27.45
2022-12-18T03:26:26.293Z,27.25
2022-12-18T03:27:04.107Z,26.45
2022-12-18T03:27:40.054Z,26.73
2022-12-18T03:28:16.705Z,26.15
2022-12-18T03:28:55.520Z,27.25
2022-12-18T03:29:34.887Z,25.47
2022-12-18T03:30:11.345Z,26.75
2022-12-18T03:30:47.169Z,25.33
2022-12-18T03:31:23.062Z,25.30
2022-12-18T03:32:08.616Z,25.30
2022-12-18T03:32:46.003Z,24.45
2022-12-18T03:33:49.540Z,25.20
2022-12-18T03:34:27.993Z,22.52
2022-12-18T03:35:04.109Z,24.27
2022-12-18T03:35:40.197Z,23.70
2022-12-18T03:36:12.490Z,24.97
2022-12-18T03:36:44.409Z,23.25
2022-12-18T03:37:16.238Z,26.90
2022-12-18T03:37:47.881Z,24.10
2022-12-18T03:38:19.935Z,25.23
2022-12-18T03:38:52.080Z,24.30
2022-12-18T03:39:23.778Z,24.08
2022-12-18T03:39:55.305Z,25.25
2022-12-18T03:40:44.279Z,25.48
2022-12-18T03:41:53.969Z,23.75
2022-12-18T03:42:51.207Z,22.23
2022-12-18T03:43:35.226Z,21.55
2022-12-18T03:44:15.977Z,21.10
2022-12-18T03:45:01.480Z,22.27
2022-12-18T03:45:38.410Z,24.30
2022-12-18T03:46:17.532Z,23.05
2022-12-18T03:47:10.684Z,23.95
2022-12-18T03:47:59.729Z,22.92
2022-12-18T03:48:38.956Z,21.38
2022-12-18T03:49:26.657Z,22.63
2022-12-18T03:50:16.701Z,23.30
2022-12-18T03:50:51.541Z,20.98
2022-12-18T03:51:25.685Z,24.13
2022-12-18T03:52:12.513Z,24.88
2022-12-18T03:52:53.023Z,23.38
2022-12-18T03:53:45.792Z,22.60
2022-12-18T03:54:18.447Z,22.83
2022-12-18T03:54:50.876Z,24.20
2022-12-18T03:55:24.092Z,24.00
2022-12-18T03:55:57.964Z,22.90
2022-12-18T03:56:38.274Z,23.93
2022-12-18T03:57:20.400Z,23.90
2022-12-18T03:57:53.559Z,23.50
2022-12-18T03:58:33.909Z,23.25
2022-12-18T03:59:06.867Z,23.70
2022-12-18T03:59:39.428Z,22.50
2022-12-18T04:00:14.405Z,22.65
2022-12-18T04:00:48.847Z,24.60
2022-12-18T04:01:26.866Z,24.13
2022-12-18T04:02:00.797Z,23.67
2022-12-18T04:02:35.435Z,23.07
2022-12-18T04:03:10.039Z,22.08
2022-12-18T04:03:45.081Z,22.00
2022-12-18T04:04:19.694Z,23.52
2022-12-18T04:05:44.992Z,23.05
2022-12-18T04:06:17.793Z,24.00
2022-12-18T04:06:51.145Z,23.05
2022-12-18T04:07:23.908Z,24.45
2022-12-18T04:07:57.222Z,22.70
2022-12-18T04:08:30.049Z,23.27
2022-12-18T04:09:01.822Z,23.23
2022-12-18T04:09:35.171Z,23.42
2022-12-18T04:10:10.292Z,24.23
2022-12-18T04:10:41.750Z,23.38
2022-12-18T04:11:13.293Z,22.88
2022-12-18T04:11:45.370Z,23.50
2022-12-18T04:12:16.986Z,23.73
2022-12-18T04:12:48.934Z,23.60
2022-12-18T04:13:30.301Z,23.25
2022-12-18T04:14:06.976Z,21.70
2022-12-18T04:14:38.867Z,22.92
2022-12-18T04:15:11.607Z,22.20
2022-12-18T04:15:43.199Z,23.17
2022-12-18T04:16:14.805Z,23.42
2022-12-18T04:16:46.325Z,24.27
2022-12-18T04:17:17.902Z,24.83
2022-12-18T04:17:50.657Z,21.23
2022-12-18T04:18:22.185Z,22.45
2022-12-18T04:18:54.644Z,23.33
2022-12-18T04:19:26.138Z,22.17
2022-12-18T04:19:57.721Z,23.27
2022-12-18T04:20:29.310Z,23.95
2022-12-18T04:21:00.833Z,22.25
2022-12-18T04:21:32.319Z,23.25
2022-12-18T04:22:03.842Z,22.60
2022-12-18T04:22:36.378Z,22.60
2022-12-18T04:23:07.852Z,22.50
2022-12-18T04:23:39.724Z,22.15
2022-12-18T04:24:11.652Z,22.38
2022-12-18T04:24:43.261Z,22.27
2022-12-18T04:25:15.458Z,23.02
2022-12-18T04:25:48.568Z,22.73
2022-12-18T04:26:20.059Z,22.73
2022-12-18T04:26:51.510Z,23.02
2022-12-18T04:28:12.289Z,22.20
2022-12-18T04:28:43.830Z,21.90
2022-12-18T04:29:15.460Z,21.80
2022-12-18T04:29:47.045Z,21.20
2022-12-18T04:30:18.563Z,21.93
2022-12-18T04:30:50.554Z,21.33
2022-12-18T04:31:22.656Z,21.95
2022-12-18T04:31:54.167Z,21.55
2022-12-18T04:32:25.844Z,23.25
2022-12-18T04:32:57.339Z,22.10
2022-12-18T04:33:28.837Z,21.25
2022-12-18T04:34:00.269Z,21.85
2022-12-18T04:34:31.773Z,23.00
2022-12-18T04:35:05.190Z,22.65
2022-12-18T04:35:36.777Z,20.63
2022-12-18T04:36:08.473Z,21.67
2022-12-18T04:36:39.880Z,20.88
2022-12-18T04:37:12.248Z,21.55
2022-12-18T04:37:43.691Z,21.60
2022-12-18T04:38:15.391Z,19.65
2022-12-18T04:38:46.893Z,21.58
2022-12-18T04:39:18.427Z,21.98
2022-12-18T04:39:49.980Z,21.35
2022-12-18T04:40:21.485Z,20.48
2022-12-18T04:40:53.016Z,20.33
2022-12-18T04:41:24.570Z,20.80
2022-12-18T04:41:56.132Z,21.63
2022-12-18T04:42:27.973Z,19.63
2022-12-18T04:42:59.491Z,20.27
2022-12-18T04:43:31.073Z,20.85
2022-12-18T04:44:02.559Z,20.55
2022-12-18T04:44:34.023Z,19.88
2022-12-18T04:45:06.177Z,21.95
2022-12-18T04:45:37.663Z,20.20
2022-12-18T04:46:09.760Z,21.93
2022-12-18T04:46:41.517Z,19.75
2022-12-18T04:47:13.018Z,20.55
2022-12-18T04:47:44.699Z,21.25
2022-12-18T04:48:17.020Z,20.65
2022-12-18T04:48:48.463Z,19.10
2022-12-18T04:49:20.101Z,20.80
2022-12-18T04:49:51.583Z,19.80
2022-12-18T04:50:23.152Z,21.05
2022-12-18T04:50:54.631Z,20.73
2022-12-18T04:51:26.951Z,20.83
2022-12-18T04:51:58.600Z,19.17
2022-12-18T04:52:30.100Z,19.70
2022-12-18T04:53:01.860Z,20.73
2022-12-18T04:53:34.088Z,21.45
2022-12-18T04:54:05.693Z,18.95
2022-12-18T04:54:37.187Z,20.55
2022-12-18T04:55:08.885Z,20.08
2022-12-18T04:55:40.381Z,20.85
2022-12-18T04:56:14.421Z,18.75
2022-12-18T04:56:45.868Z,20.53
2022-12-18T04:57:19.013Z,20.83
2022-12-18T04:57:50.522Z,19.73
2022-12-18T04:58:21.976Z,20.48
2022-12-18T04:58:53.477Z,19.20
2022-12-18T04:59:25.010Z,18.77
2022-12-18T04:59:56.527Z,19.92
2022-12-18T05:00:28.060Z,19.02
2022-12-18T05:00:59.958Z,20.77
2022-12-18T05:01:34.860Z,18.80
2022-12-18T05:02:07.003Z,20.00
2022-12-18T05:02:38.639Z,18.60
2022-12-18T05:03:10.221Z,19.60
2022-12-18T05:03:42.283Z,19.52
2022-12-18T05:04:14.037Z,21.52
2022-12-18T05:04:45.472Z,18.40
2022-12-18T05:05:17.111Z,19.65
2022-12-18T05:05:52.265Z,18.63
2022-12-18T05:06:23.711Z,19.63
2022-12-18T05:06:55.264Z,18.70
2022-12-18T05:07:26.699Z,18.37
2022-12-18T05:07:58.207Z,18.98
2022-12-18T05:08:29.721Z,18.98
2022-12-18T05:09:01.233Z,20.02
2022-12-18T05:09:32.736Z,19.90
2022-12-18T05:10:08.134Z,18.80
2022-12-18T05:10:44.725Z,19.98
2022-12-18T05:11:19.642Z,20.10
2022-12-18T05:11:51.207Z,19.48
2022-12-18T05:12:22.828Z,18.17
2022-12-18T05:13:01.291Z,18.50
2022-12-18T05:13:33.889Z,17.23
2022-12-18T05:14:05.348Z,17.52
2022-12-18T05:14:36.884Z,18.35
2022-12-18T05:15:08.809Z,19.25
2022-12-18T05:15:40.305Z,18.95
2022-12-18T05:16:12.840Z,18.77
2022-12-18T05:16:44.397Z,18.42
2022-12-18T05:17:17.321Z,18.77
2022-12-18T05:17:48.773Z,17.98
2022-12-18T05:18:20.349Z,19.37
2022-12-18T05:18:51.939Z,18.23
2022-12-18T05:19:23.491Z,18.33
2022-12-18T05:19:55.002Z,18.95
2022-12-18T05:21:16.354Z,17.92
2022-12-18T05:21:47.884Z,17.77
2022-12-18T05:22:19.408Z,17.38
2022-12-18T05:22:51.883Z,18.20
2022-12-18T05:23:24.980Z,18.67
2022-12-18T05:23:56.381Z,17.73
2022-12-18T05:24:28.036Z,18.27
2022-12-18T05:24:59.469Z,18.02
2022-12-18T05:25:30.975Z,18.13
2022-12-18T05:26:05.575Z,19.35
2022-12-18T05:26:37.044Z,17.85
2022-12-18T05:27:08.599Z,17.38
2022-12-18T05:27:40.140Z,18.42
2022-12-18T05:28:11.775Z,18.77
2022-12-18T05:28:43.271Z,18.48
2022-12-18T05:29:14.844Z,17.57
2022-12-18T05:29:46.411Z,17.17
2022-12-18T05:30:18.030Z,18.70
2022-12-18T05:30:54.285Z,18.15
2022-12-18T05:31:25.823Z,16.73
2022-12-18T05:31:57.447Z,16.50
2022-12-18T05:32:28.910Z,18.67
2022-12-18T05:33:00.383Z,18.10
2022-12-18T05:33:34.231Z,18.45
2022-12-18T05:34:06.411Z,17.80
2022-12-18T05:34:38.346Z,17.47
2022-12-18T05:35:11.859Z,17.98
2022-12-18T05:35:43.402Z,18.48
2022-12-18T05:36:14.940Z,18.70
2022-12-18T05:36:47.765Z,18.75
2022-12-18T05:37:19.321Z,17.80
2022-12-18T05:37:50.761Z,17.67
2022-12-18T05:38:23.669Z,17.92
2022-12-18T05:38:55.215Z,18.10
2022-12-18T05:39:26.701Z,17.38
2022-12-18T05:39:58.143Z,18.63
2022-12-18T05:40:29.622Z,17.33
2022-12-18T05:41:02.753Z,17.83
2022-12-18T05:41:34.414Z,18.00
2022-12-18T05:42:05.962Z,17.27
2022-12-18T05:42:37.592Z,18.13
2022-12-18T05:43:09.204Z,19.65
2022-12-18T05:43:41.533Z,18.42
2022-12-18T05:44:13.485Z,18.08
2022-12-18T05:44:45.418Z,17.00
2022-12-18T05:45:17.020Z,17.13
2022-12-18T05:45:51.496Z,18.30
2022-12-18T05:46:23.081Z,18.50
2022-12-18T05:46:54.818Z,18.48
2022-12-18T05:47:27.828Z,18.08
2022-12-18T05:47:59.329Z,18.08
2022-12-18T05:48:30.869Z,18.02
2022-12-18T05:49:02.474Z,17.40
2022-12-18T05:49:33.942Z,18.20
2022-12-18T05:50:06.125Z,17.38
2022-12-18T05:50:38.342Z,19.50
2022-12-18T05:51:13.877Z,18.23
2022-12-18T05:51:45.689Z,17.50
2022-12-18T05:52:17.266Z,17.45
2022-12-18T05:52:48.721Z,17.85
2022-12-18T05:53:21.446Z,16.98
2022-12-18T05:53:53.010Z,17.92
2022-12-18T05:54:24.513Z,17.45
2022-12-18T05:54:56.033Z,16.80
2022-12-18T05:55:27.530Z,16.17
2022-12-18T05:56:03.005Z,17.00
2022-12-18T05:56:34.474Z,18.33
2022-12-18T05:57:05.968Z,17.75
2022-12-18T05:57:37.550Z,18.67
2022-12-18T05:58:10.833Z,17.80
2022-12-18T05:58:42.910Z,16.80
2022-12-18T05:59:14.426Z,18.25
2022-12-18T05:59:45.970Z,18.48
2022-12-18T06:00:20.768Z,18.25
2022-12-18T06:00:52.338Z,17.05
2022-12-18T06:01:27.387Z,17.73
2022-12-18T06:01:59.124Z,19.00
2022-12-18T06:02:30.692Z,18.52
2022-12-18T06:03:02.570Z,17.83
2022-12-18T06:03:34.343Z,17.60
2022-12-18T06:04:05.904Z,17.90
2022-12-18T06:04:38.288Z,17.08
2022-12-18T06:05:10.048Z,17.20
2022-12-18T06:05:46.065Z,20.20
2022-12-18T06:07:08.350Z,16.77
2022-12-18T06:07:39.750Z,16.10
2022-12-18T06:08:12.603Z,18.15
2022-12-18T06:08:46.773Z,18.48
2022-12-18T06:09:18.447Z,17.17
2022-12-18T06:09:49.922Z,16.75
2022-12-18T06:10:21.404Z,16.90
2022-12-18T06:10:53.592Z,18.17
2022-12-18T06:11:27.356Z,19.30
2022-12-18T06:11:58.922Z,17.27
2022-12-18T06:12:30.437Z,17.30
2022-12-18T06:13:02.371Z,16.98
2022-12-18T06:13:33.923Z,16.17
2022-12-18T06:14:07.167Z,18.08
2022-12-18T06:14:38.895Z,16.65
2022-12-18T06:15:10.444Z,17.20
2022-12-18T06:15:41.927Z,17.17
2022-12-18T06:16:13.486Z,17.77
2022-12-18T06:16:45.176Z,17.13
2022-12-18T06:17:16.608Z,16.33
2022-12-18T06:17:48.088Z,16.70
2022-12-18T06:18:19.599Z,16.38
2022-12-18T06:18:51.049Z,16.05
2022-12-18T06:19:22.583Z,17.73
2022-12-18T06:19:54.116Z,17.42
2022-12-18T06:20:30.419Z,15.30
2022-12-18T06:21:04.842Z,16.80
2022-12-18T06:21:36.244Z,16.73
2022-12-18T06:22:07.922Z,16.15
2022-12-18T06:22:39.481Z,17.02
2022-12-18T06:23:10.901Z,17.63
2022-12-18T06:23:43.206Z,16.85
2022-12-18T06:24:14.856Z,16.38
2022-12-18T06:24:46.321Z,18.10
2022-12-18T06:25:17.845Z,17.50
2022-12-18T06:25:49.491Z,18.42
2022-12-18T06:26:26.153Z,17.77
2022-12-18T06:26:59.371Z,16.33
2022-12-18T06:27:30.871Z,17.55
2022-12-18T06:28:02.488Z,17.20
2022-12-18T06:28:34.201Z,17.80
2022-12-18T06:29:06.634Z,16.63
2022-12-18T06:29:38.215Z,16.83
2022-12-18T06:30:10.516Z,18.17
2022-12-18T06:30:45.432Z,17.60
2022-12-18T06:31:17.111Z,16.85
2022-12-18T06:31:48.747Z,18.27
2022-12-18T06:32:20.308Z,16.23
2022-12-18T06:32:56.645Z,18.48
2022-12-18T06:33:29.729Z,17.40
2022-12-18T06:34:04.169Z,18.50
2022-12-18T06:34:44.479Z,18.08
2022-12-18T06:35:21.230Z,16.73
2022-12-18T06:35:57.831Z,18.10
2022-12-18T06:36:32.665Z,17.48
2022-12-18T06:37:07.454Z,16.63
2022-12-18T06:37:39.170Z,16.10
2022-12-18T06:38:12.078Z,17.13
2022-12-18T06:38:44.883Z,18.20
2022-12-18T06:39:16.381Z,16.38
2022-12-18T06:39:48.206Z,17.60
2022-12-18T06:40:19.910Z,17.83
2022-12-18T06:40:51.404Z,17.85
2022-12-18T06:41:23.107Z,17.48
2022-12-18T06:41:54.554Z,17.52
2022-12-18T06:42:26.290Z,17.55
2022-12-18T06:42:58.446Z,17.88
2022-12-18T06:43:32.039Z,19.05
2022-12-18T06:44:04.082Z,18.05
2022-12-18T06:44:35.474Z,17.98
2022-12-18T06:45:07.443Z,18.57
2022-12-18T06:45:38.933Z,18.25
2022-12-18T06:46:11.257Z,17.83
2022-12-18T06:46:42.703Z,18.90
2022-12-18T06:47:14.569Z,19.20
2022-12-18T06:47:46.171Z,18.27
2022-12-18T06:48:17.673Z,18.55
2022-12-18T06:48:50.817Z,19.45
2022-12-18T06:49:26.149Z,17.63
2022-12-18T06:50:00.272Z,16.75
2022-12-18T06:50:31.817Z,18.00
2022-12-18T06:51:04.022Z,17.40
2022-12-18T06:51:35.584Z,17.80
2022-12-18T06:52:07.293Z,18.70
2022-12-18T06:52:39.939Z,17.60
2022-12-18T06:53:11.517Z,18.15
2022-12-18T06:53:43.345Z,17.90
2022-12-18T06:54:15.112Z,18.45
2022-12-18T06:54:46.593Z,18.88
2022-12-18T06:55:18.288Z,18.02
2022-12-18T06:55:49.911Z,16.20
2022-12-18T06:56:21.516Z,17.98
2022-12-18T06:56:53.073Z,18.80
2022-12-18T06:57:24.573Z,19.48
2022-12-18T06:57:56.138Z,18.48
2022-12-18T06:58:28.635Z,18.27
2022-12-18T06:59:00.319Z,18.33
2022-12-18T06:59:31.748Z,18.48
2022-12-18T07:00:06.382Z,18.95
2022-12-18T07:00:38.023Z,19.02
2022-12-18T07:01:12.114Z,17.30
2022-12-18T07:01:43.715Z,17.77
2022-12-18T07:02:15.509Z,17.63
2022-12-18T07:02:47.250Z,17.90
2022-12-18T07:03:18.825Z,17.45
2022-12-18T07:03:56.773Z,17.80
2022-12-18T07:04:30.229Z,16.95
2022-12-18T07:05:06.194Z,16.92
2022-12-18T07:05:42.115Z,17.10
2022-12-18T07:06:21.101Z,17.25
2022-12-18T07:06:52.618Z,17.47
2022-12-18T07:07:24.170Z,17.08
2022-12-18T07:07:55.695Z,17.30
2022-12-18T07:08:27.181Z,18.25
2022-12-18T07:08:58.943Z,17.83
2022-12-18T07:09:30.453Z,16.65
2022-12-18T07:10:01.930Z,19.00
2022-12-18T07:10:33.463Z,17.88
2022-12-18T07:11:05.440Z,17.80
2022-12-18T07:11:36.985Z,18.92
2022-12-18T07:12:09.112Z,17.33
2022-12-18T07:12:42.467Z,18.88
2022-12-18T07:13:13.943Z,18.10
2022-12-18T07:13:46.641Z,19.30
2022-12-18T07:14:18.138Z,18.05
2022-12-18T07:14:49.597Z,18.42
2022-12-18T07:15:21.114Z,18.10
2022-12-18T07:15:52.583Z,17.73
2022-12-18T07:16:25.669Z,18.38
2022-12-18T07:16:57.555Z,18.08
2022-12-18T07:17:30.439Z,18.03
2022-12-18T07:18:02.041Z,17.08
2022-12-18T07:18:33.532Z,16.42
2022-12-18T07:19:04.983Z,16.20
2022-12-18T07:19:36.524Z,17.73
2022-12-18T07:20:08.749Z,16.67
2022-12-18T07:20:40.298Z,17.23
2022-12-18T07:21:17.102Z,17.65
2022-12-18T07:21:48.523Z,18.52
2022-12-18T07:22:20.041Z,18.08
2022-12-18T07:22:56.100Z,17.30
2022-12-18T07:23:27.852Z,18.60
2022-12-18T07:23:59.405Z,16.75
2022-12-18T07:24:30.941Z,16.48
2022-12-18T07:25:02.433Z,17.60
2022-12-18T07:25:37.918Z,16.83
2022-12-18T07:26:12.291Z,17.83
2022-12-18T07:26:46.759Z,16.38
2022-12-18T07:27:18.211Z,16.95
2022-12-18T07:27:49.717Z,17.90
2022-12-18T07:28:21.713Z,17.43
2022-12-18T07:28:58.707Z,17.77
2022-12-18T07:29:30.858Z,16.50